Terminal Aerodrome Forecast
Issued by NWS

Home | Current Version | Previous Version | Text Only | Print | Product List | Glossary On
Versions: 1 2 3 4 5 6 7 8 9 10 11 12 13 14
000
FTAK31 PAJN 011700
TAFAYA
TAF
PAYA 011725Z 0118/0218 06006KT P6SM FEW025 WS020/06030KT
     FM012000 08009KT P6SM SKC WS020/06040KT
     FM020400 08008KT P6SM SKC WS020/06030KT
     FM021200 08004KT P6SM SKC
      AMD LTD TO CLD VIS AND WIND 0201/0210=

USA.gov is the U.S. government's official web portal to all federal, state and local government web resources and services.